sensor_id;sensor_type;location;lat;lon;timestamp;P1;durP1;ratioP1;P2;durP2;ratioP2
81648;SDS011;71057;51.436;6.768;2024-02-23T00:01:05;1.25;;;1.10;;
81648;SDS011;71057;51.436;6.768;2024-02-23T00:03:31;1.20;;;1.10;;
81648;SDS011;71057;51.436;6.768;2024-02-23T00:05:57;1.25;;;1.15;;
81648;SDS011;71057;51.436;6.768;2024-02-23T00:08:23;1.30;;;1.15;;
81648;SDS011;71057;51.436;6.768;2024-02-23T00:10:48;2.27;;;0.93;;
81648;SDS011;71057;51.436;6.768;2024-02-23T00:13:14;1.67;;;1.20;;
81648;SDS011;71057;51.436;6.768;2024-02-23T00:15:39;1.30;;;0.80;;
81648;SDS011;71057;51.436;6.768;2024-02-23T00:18:04;1.57;;;1.20;;
81648;SDS011;71057;51.436;6.768;2024-02-23T00:20:31;1.33;;;1.05;;
81648;SDS011;71057;51.436;6.768;2024-02-23T00:22:56;1.77;;;1.48;;
81648;SDS011;71057;51.436;6.768;2024-02-23T00:25:21;2.20;;;1.50;;
81648;SDS011;71057;51.436;6.768;2024-02-23T00:27:48;3.08;;;2.17;;
81648;SDS011;71057;51.436;6.768;2024-02-23T00:30:13;6.03;;;2.83;;
81648;SDS011;71057;51.436;6.768;2024-02-23T00:32:39;3.83;;;2.97;;
81648;SDS011;71057;51.436;6.768;2024-02-23T00:35:04;4.32;;;3.15;;
81648;SDS011;71057;51.436;6.768;2024-02-23T00:37:30;4.63;;;3.33;;
81648;SDS011;71057;51.436;6.768;2024-02-23T00:40:00;4.50;;;3.03;;
81648;SDS011;71057;51.436;6.768;2024-02-23T00:42:31;6.18;;;3.63;;
81648;SDS011;71057;51.436;6.768;2024-02-23T00:44:57;8.37;;;3.57;;
81648;SDS011;71057;51.436;6.768;2024-02-23T00:47:22;5.20;;;2.67;;
81648;SDS011;71057;51.436;6.768;2024-02-23T00:49:47;2.93;;;2.00;;
81648;SDS011;71057;51.436;6.768;2024-02-23T00:52:13;5.17;;;3.17;;
81648;SDS011;71057;51.436;6.768;2024-02-23T00:54:39;2.92;;;1.92;;
81648;SDS011;71057;51.436;6.768;2024-02-23T00:57:04;3.50;;;2.27;;
81648;SDS011;71057;51.436;6.768;2024-02-23T00:59:30;4.57;;;1.90;;
81648;SDS011;71057;51.436;6.768;2024-02-23T01:01:55;3.07;;;2.33;;
81648;SDS011;71057;51.436;6.768;2024-02-23T01:04:20;1.80;;;1.60;;
81648;SDS011;71057;51.436;6.768;2024-02-23T01:06:46;2.05;;;1.67;;
81648;SDS011;71057;51.436;6.768;2024-02-23T01:09:11;3.40;;;2.13;;
81648;SDS011;71057;51.436;6.768;2024-02-23T01:11:36;1.92;;;1.65;;
81648;SDS011;71057;51.436;6.768;2024-02-23T01:14:02;4.37;;;2.20;;
81648;SDS011;71057;51.436;6.768;2024-02-23T01:16:27;2.08;;;1.45;;
81648;SDS011;71057;51.436;6.768;2024-02-23T01:18:52;4.32;;;1.92;;
81648;SDS011;71057;51.436;6.768;2024-02-23T01:21:17;6.07;;;2.50;;
81648;SDS011;71057;51.436;6.768;2024-02-23T01:23:43;4.20;;;1.95;;
81648;SDS011;71057;51.436;6.768;2024-02-23T01:26:08;7.27;;;3.90;;
81648;SDS011;71057;51.436;6.768;2024-02-23T01:28:34;4.40;;;2.20;;
81648;SDS011;71057;51.436;6.768;2024-02-23T01:30:59;2.80;;;1.70;;
81648;SDS011;71057;51.436;6.768;2024-02-23T01:33:24;4.60;;;1.80;;
81648;SDS011;71057;51.436;6.768;2024-02-23T01:35:49;5.35;;;2.58;;
81648;SDS011;71057;51.436;6.768;2024-02-23T01:38:15;3.00;;;1.60;;
81648;SDS011;71057;51.436;6.768;2024-02-23T01:40:45;2.15;;;1.90;;
81648;SDS011;71057;51.436;6.768;2024-02-23T01:43:10;2.40;;;1.40;;
81648;SDS011;71057;51.436;6.768;2024-02-23T01:45:36;2.28;;;1.33;;
81648;SDS011;71057;51.436;6.768;2024-02-23T01:48:01;3.03;;;1.63;;
81648;SDS011;71057;51.436;6.768;2024-02-23T01:50:27;2.20;;;1.17;;
81648;SDS011;71057;51.436;6.768;2024-02-23T01:52:53;1.90;;;1.25;;
81648;SDS011;71057;51.436;6.768;2024-02-23T01:55:22;5.15;;;1.75;;
81648;SDS011;71057;51.436;6.768;2024-02-23T01:57:48;2.03;;;1.50;;
81648;SDS011;71057;51.436;6.768;2024-02-23T02:00:15;2.00;;;0.90;;
81648;SDS011;71057;51.436;6.768;2024-02-23T02:05:08;3.95;;;1.83;;
81648;SDS011;71057;51.436;6.768;2024-02-23T02:07:33;2.03;;;1.20;;
81648;SDS011;71057;51.436;6.768;2024-02-23T02:09:59;2.73;;;0.90;;
81648;SDS011;71057;51.436;6.768;2024-02-23T02:12:27;3.35;;;1.40;;
81648;SDS011;71057;51.436;6.768;2024-02-23T02:14:53;3.22;;;1.35;;
81648;SDS011;71057;51.436;6.768;2024-02-23T02:17:19;3.50;;;1.50;;
81648;SDS011;71057;51.436;6.768;2024-02-23T02:19:46;1.67;;;1.10;;
81648;SDS011;71057;51.436;6.768;2024-02-23T02:22:12;2.80;;;1.40;;
81648;SDS011;71057;51.436;6.768;2024-02-23T02:24:38;3.17;;;1.27;;
81648;SDS011;71057;51.436;6.768;2024-02-23T02:27:05;2.13;;;1.08;;
81648;SDS011;71057;51.436;6.768;2024-02-23T02:29:31;6.45;;;1.30;;
81648;SDS011;71057;51.436;6.768;2024-02-23T02:31:57;1.80;;;1.08;;
81648;SDS011;71057;51.436;6.768;2024-02-23T02:34:22;2.58;;;1.20;;
81648;SDS011;71057;51.436;6.768;2024-02-23T02:36:48;2.60;;;1.10;;
81648;SDS011;71057;51.436;6.768;2024-02-23T02:39:13;3.65;;;1.30;;
81648;SDS011;71057;51.436;6.768;2024-02-23T02:41:39;2.13;;;1.20;;
81648;SDS011;71057;51.436;6.768;2024-02-23T02:44:04;3.97;;;1.23;;
81648;SDS011;71057;51.436;6.768;2024-02-23T02:46:30;1.42;;;0.95;;
81648;SDS011;71057;51.436;6.768;2024-02-23T02:48:55;2.33;;;0.90;;
81648;SDS011;71057;51.436;6.768;2024-02-23T02:51:20;2.40;;;1.00;;
81648;SDS011;71057;51.436;6.768;2024-02-23T02:53:46;4.20;;;1.50;;
81648;SDS011;71057;51.436;6.768;2024-02-23T02:56:11;3.47;;;1.13;;
81648;SDS011;71057;51.436;6.768;2024-02-23T02:58:36;2.07;;;1.03;;
81648;SDS011;71057;51.436;6.768;2024-02-23T03:01:01;4.57;;;1.00;;
81648;SDS011;71057;51.436;6.768;2024-02-23T03:03:28;3.78;;;1.27;;
81648;SDS011;71057;51.436;6.768;2024-02-23T03:05:54;2.97;;;1.10;;
81648;SDS011;71057;51.436;6.768;2024-02-23T03:08:20;2.72;;;1.00;;
81648;SDS011;71057;51.436;6.768;2024-02-23T03:10:45;2.20;;;1.30;;
81648;SDS011;71057;51.436;6.768;2024-02-23T03:13:10;3.77;;;1.10;;
81648;SDS011;71057;51.436;6.768;2024-02-23T03:15:36;2.67;;;1.27;;
81648;SDS011;71057;51.436;6.768;2024-02-23T03:18:01;1.43;;;1.00;;
81648;SDS011;71057;51.436;6.768;2024-02-23T03:20:27;1.60;;;1.10;;
81648;SDS011;71057;51.436;6.768;2024-02-23T03:22:52;2.10;;;1.17;;
81648;SDS011;71057;51.436;6.768;2024-02-23T03:25:18;2.33;;;1.47;;
81648;SDS011;71057;51.436;6.768;2024-02-23T03:27:43;2.30;;;0.73;;
81648;SDS011;71057;51.436;6.768;2024-02-23T03:30:08;4.83;;;1.17;;
81648;SDS011;71057;51.436;6.768;2024-02-23T03:32:34;2.58;;;1.17;;
81648;SDS011;71057;51.436;6.768;2024-02-23T03:35:04;2.50;;;1.23;;
81648;SDS011;71057;51.436;6.768;2024-02-23T03:37:35;1.77;;;0.90;;
81648;SDS011;71057;51.436;6.768;2024-02-23T03:40:00;3.60;;;1.05;;
81648;SDS011;71057;51.436;6.768;2024-02-23T03:42:26;3.85;;;1.25;;
81648;SDS011;71057;51.436;6.768;2024-02-23T03:44:52;3.80;;;1.23;;
81648;SDS011;71057;51.436;6.768;2024-02-23T03:47:17;2.85;;;0.90;;
81648;SDS011;71057;51.436;6.768;2024-02-23T03:49:42;2.45;;;0.93;;
81648;SDS011;71057;51.436;6.768;2024-02-23T03:52:08;1.80;;;1.00;;
81648;SDS011;71057;51.436;6.768;2024-02-23T03:54:33;1.13;;;0.80;;
81648;SDS011;71057;51.436;6.768;2024-02-23T03:56:58;3.35;;;1.20;;
81648;SDS011;71057;51.436;6.768;2024-02-23T03:59:24;3.57;;;1.27;;
81648;SDS011;71057;51.436;6.768;2024-02-23T04:01:49;2.20;;;1.10;;
81648;SDS011;71057;51.436;6.768;2024-02-23T04:04:14;2.28;;;1.65;;
81648;SDS011;71057;51.436;6.768;2024-02-23T04:06:40;2.05;;;1.10;;
81648;SDS011;71057;51.436;6.768;2024-02-23T04:09:05;4.40;;;1.37;;
81648;SDS011;71057;51.436;6.768;2024-02-23T04:11:31;2.10;;;1.00;;
81648;SDS011;71057;51.436;6.768;2024-02-23T04:13:56;2.15;;;0.93;;
81648;SDS011;71057;51.436;6.768;2024-02-23T04:16:22;2.08;;;1.00;;
81648;SDS011;71057;51.436;6.768;2024-02-23T04:18:48;2.25;;;1.10;;
81648;SDS011;71057;51.436;6.768;2024-02-23T04:21:14;2.15;;;1.00;;
81648;SDS011;71057;51.436;6.768;2024-02-23T04:23:40;2.33;;;1.20;;
81648;SDS011;71057;51.436;6.768;2024-02-23T04:26:05;3.47;;;1.10;;
81648;SDS011;71057;51.436;6.768;2024-02-23T04:28:30;5.77;;;1.70;;
81648;SDS011;71057;51.436;6.768;2024-02-23T04:30:58;2.55;;;1.17;;
81648;SDS011;71057;51.436;6.768;2024-02-23T04:33:23;3.73;;;2.37;;
81648;SDS011;71057;51.436;6.768;2024-02-23T04:35:49;4.93;;;1.50;;
81648;SDS011;71057;51.436;6.768;2024-02-23T04:38:14;2.17;;;1.33;;
81648;SDS011;71057;51.436;6.768;2024-02-23T04:40:39;3.07;;;1.07;;
81648;SDS011;71057;51.436;6.768;2024-02-23T04:43:04;3.83;;;1.10;;
81648;SDS011;71057;51.436;6.768;2024-02-23T04:45:30;4.17;;;1.20;;
81648;SDS011;71057;51.436;6.768;2024-02-23T04:47:55;3.73;;;1.10;;
81648;SDS011;71057;51.436;6.768;2024-02-23T04:50:20;3.00;;;1.20;;
81648;SDS011;71057;51.436;6.768;2024-02-23T04:52:45;3.72;;;1.50;;
81648;SDS011;71057;51.436;6.768;2024-02-23T04:55:11;4.50;;;1.13;;
81648;SDS011;71057;51.436;6.768;2024-02-23T04:57:36;3.10;;;1.13;;
81648;SDS011;71057;51.436;6.768;2024-02-23T05:00:03;3.38;;;1.75;;
81648;SDS011;71057;51.436;6.768;2024-02-23T05:02:29;2.90;;;1.40;;
81648;SDS011;71057;51.436;6.768;2024-02-23T05:04:59;8.07;;;2.08;;
81648;SDS011;71057;51.436;6.768;2024-02-23T05:07:25;3.53;;;1.70;;
81648;SDS011;71057;51.436;6.768;2024-02-23T05:09:50;4.60;;;1.80;;
81648;SDS011;71057;51.436;6.768;2024-02-23T05:12:15;5.70;;;2.23;;
81648;SDS011;71057;51.436;6.768;2024-02-23T05:14:40;6.17;;;2.23;;
81648;SDS011;71057;51.436;6.768;2024-02-23T05:17:06;4.33;;;2.03;;
81648;SDS011;71057;51.436;6.768;2024-02-23T05:19:31;3.90;;;1.80;;
81648;SDS011;71057;51.436;6.768;2024-02-23T05:21:56;5.03;;;1.53;;
81648;SDS011;71057;51.436;6.768;2024-02-23T05:24:21;3.70;;;1.43;;
81648;SDS011;71057;51.436;6.768;2024-02-23T05:26:47;5.20;;;1.70;;
81648;SDS011;71057;51.436;6.768;2024-02-23T05:29:12;2.70;;;1.10;;
81648;SDS011;71057;51.436;6.768;2024-02-23T05:31:43;3.97;;;1.80;;
81648;SDS011;71057;51.436;6.768;2024-02-23T05:34:10;3.67;;;1.20;;
81648;SDS011;71057;51.436;6.768;2024-02-23T05:36:35;5.80;;;1.77;;
81648;SDS011;71057;51.436;6.768;2024-02-23T05:39:00;7.30;;;1.60;;
81648;SDS011;71057;51.436;6.768;2024-02-23T05:41:26;6.07;;;1.50;;
81648;SDS011;71057;51.436;6.768;2024-02-23T05:43:51;4.67;;;1.40;;
81648;SDS011;71057;51.436;6.768;2024-02-23T05:46:16;2.42;;;1.23;;
81648;SDS011;71057;51.436;6.768;2024-02-23T05:48:43;2.08;;;1.05;;
81648;SDS011;71057;51.436;6.768;2024-02-23T05:51:08;4.68;;;1.05;;
81648;SDS011;71057;51.436;6.768;2024-02-23T05:53:33;2.08;;;1.42;;
81648;SDS011;71057;51.436;6.768;2024-02-23T05:55:59;3.30;;;0.90;;
81648;SDS011;71057;51.436;6.768;2024-02-23T05:58:24;1.40;;;0.73;;
81648;SDS011;71057;51.436;6.768;2024-02-23T06:00:50;3.58;;;1.17;;
81648;SDS011;71057;51.436;6.768;2024-02-23T06:03:16;5.55;;;1.15;;
81648;SDS011;71057;51.436;6.768;2024-02-23T06:05:43;2.88;;;1.27;;
81648;SDS011;71057;51.436;6.768;2024-02-23T06:08:08;3.72;;;1.30;;
81648;SDS011;71057;51.436;6.768;2024-02-23T06:10:33;6.23;;;1.30;;
81648;SDS011;71057;51.436;6.768;2024-02-23T06:12:59;2.73;;;1.00;;
81648;SDS011;71057;51.436;6.768;2024-02-23T06:15:24;2.40;;;1.03;;
81648;SDS011;71057;51.436;6.768;2024-02-23T06:17:49;4.23;;;1.00;;
81648;SDS011;71057;51.436;6.768;2024-02-23T06:20:15;2.83;;;1.07;;
81648;SDS011;71057;51.436;6.768;2024-02-23T06:22:40;3.47;;;1.40;;
81648;SDS011;71057;51.436;6.768;2024-02-23T06:25:05;5.87;;;1.20;;
81648;SDS011;71057;51.436;6.768;2024-02-23T06:27:31;4.53;;;1.25;;
81648;SDS011;71057;51.436;6.768;2024-02-23T06:29:56;3.67;;;1.00;;
81648;SDS011;71057;51.436;6.768;2024-02-23T06:32:22;4.00;;;1.10;;
81648;SDS011;71057;51.436;6.768;2024-02-23T06:34:47;2.15;;;1.17;;
81648;SDS011;71057;51.436;6.768;2024-02-23T06:37:12;4.70;;;1.25;;
81648;SDS011;71057;51.436;6.768;2024-02-23T06:39:38;4.13;;;1.00;;
81648;SDS011;71057;51.436;6.768;2024-02-23T06:42:04;3.35;;;1.20;;
81648;SDS011;71057;51.436;6.768;2024-02-23T06:44:29;2.83;;;1.10;;
81648;SDS011;71057;51.436;6.768;2024-02-23T06:46:55;4.97;;;1.10;;
81648;SDS011;71057;51.436;6.768;2024-02-23T06:49:20;2.20;;;1.30;;
81648;SDS011;71057;51.436;6.768;2024-02-23T06:51:46;4.40;;;1.08;;
81648;SDS011;71057;51.436;6.768;2024-02-23T06:54:11;3.17;;;1.10;;
81648;SDS011;71057;51.436;6.768;2024-02-23T06:56:36;3.15;;;1.23;;
81648;SDS011;71057;51.436;6.768;2024-02-23T06:59:02;4.90;;;1.40;;
81648;SDS011;71057;51.436;6.768;2024-02-23T07:01:27;7.05;;;1.83;;
81648;SDS011;71057;51.436;6.768;2024-02-23T07:03:53;4.47;;;1.20;;
81648;SDS011;71057;51.436;6.768;2024-02-23T07:06:18;4.55;;;1.73;;
81648;SDS011;71057;51.436;6.768;2024-02-23T07:08:44;1.92;;;1.00;;
81648;SDS011;71057;51.436;6.768;2024-02-23T07:11:10;5.75;;;1.20;;
81648;SDS011;71057;51.436;6.768;2024-02-23T07:13:35;4.18;;;2.05;;
81648;SDS011;71057;51.436;6.768;2024-02-23T07:16:01;3.33;;;1.00;;
81648;SDS011;71057;51.436;6.768;2024-02-23T07:18:26;4.05;;;1.15;;
81648;SDS011;71057;51.436;6.768;2024-02-23T07:20:52;4.37;;;1.20;;
81648;SDS011;71057;51.436;6.768;2024-02-23T07:23:17;3.17;;;1.00;;
81648;SDS011;71057;51.436;6.768;2024-02-23T07:25:42;4.18;;;1.38;;
81648;SDS011;71057;51.436;6.768;2024-02-23T07:28:11;3.35;;;1.55;;
81648;SDS011;71057;51.436;6.768;2024-02-23T07:30:38;2.53;;;0.90;;
81648;SDS011;71057;51.436;6.768;2024-02-23T07:33:04;2.63;;;1.08;;
81648;SDS011;71057;51.436;6.768;2024-02-23T07:35:29;3.15;;;1.08;;
81648;SDS011;71057;51.436;6.768;2024-02-23T07:37:55;3.80;;;1.30;;
81648;SDS011;71057;51.436;6.768;2024-02-23T07:40:20;3.40;;;0.90;;
81648;SDS011;71057;51.436;6.768;2024-02-23T07:42:45;3.75;;;1.25;;
81648;SDS011;71057;51.436;6.768;2024-02-23T07:45:11;3.80;;;1.00;;
81648;SDS011;71057;51.436;6.768;2024-02-23T07:47:36;4.20;;;1.05;;
81648;SDS011;71057;51.436;6.768;2024-02-23T07:50:02;3.42;;;0.95;;
81648;SDS011;71057;51.436;6.768;2024-02-23T07:52:27;3.65;;;1.00;;
81648;SDS011;71057;51.436;6.768;2024-02-23T07:54:53;2.75;;;1.10;;
81648;SDS011;71057;51.436;6.768;2024-02-23T07:57:19;3.97;;;1.08;;
81648;SDS011;71057;51.436;6.768;2024-02-23T07:59:45;2.50;;;0.98;;
81648;SDS011;71057;51.436;6.768;2024-02-23T08:02:10;2.58;;;0.80;;
81648;SDS011;71057;51.436;6.768;2024-02-23T08:04:36;3.37;;;1.00;;
81648;SDS011;71057;51.436;6.768;2024-02-23T08:07:01;6.72;;;1.40;;
81648;SDS011;71057;51.436;6.768;2024-02-23T08:09:27;3.13;;;1.23;;
81648;SDS011;71057;51.436;6.768;2024-02-23T08:11:52;2.50;;;0.90;;
81648;SDS011;71057;51.436;6.768;2024-02-23T08:14:17;1.57;;;0.73;;
81648;SDS011;71057;51.436;6.768;2024-02-23T08:16:42;3.00;;;1.33;;
81648;SDS011;71057;51.436;6.768;2024-02-23T08:19:08;4.57;;;1.20;;
81648;SDS011;71057;51.436;6.768;2024-02-23T08:21:33;4.70;;;1.00;;
81648;SDS011;71057;51.436;6.768;2024-02-23T08:23:58;3.00;;;1.27;;
81648;SDS011;71057;51.436;6.768;2024-02-23T08:26:23;3.20;;;0.90;;
81648;SDS011;71057;51.436;6.768;2024-02-23T08:28:49;1.63;;;1.07;;
81648;SDS011;71057;51.436;6.768;2024-02-23T08:31:14;1.97;;;1.03;;
81648;SDS011;71057;51.436;6.768;2024-02-23T08:33:39;3.93;;;1.20;;
81648;SDS011;71057;51.436;6.768;2024-02-23T08:36:05;5.23;;;0.90;;
81648;SDS011;71057;51.436;6.768;2024-02-23T08:38:30;3.13;;;1.13;;
81648;SDS011;71057;51.436;6.768;2024-02-23T08:40:58;4.68;;;1.00;;
81648;SDS011;71057;51.436;6.768;2024-02-23T08:43:24;3.67;;;1.20;;
81648;SDS011;71057;51.436;6.768;2024-02-23T08:45:49;3.60;;;0.90;;
81648;SDS011;71057;51.436;6.768;2024-02-23T08:48:14;1.83;;;0.60;;
81648;SDS011;71057;51.436;6.768;2024-02-23T08:50:40;3.03;;;0.90;;
81648;SDS011;71057;51.436;6.768;2024-02-23T08:53:05;3.58;;;1.00;;
81648;SDS011;71057;51.436;6.768;2024-02-23T08:55:31;5.27;;;1.40;;
81648;SDS011;71057;51.436;6.768;2024-02-23T08:57:58;3.03;;;0.93;;
81648;SDS011;71057;51.436;6.768;2024-02-23T09:00:23;3.85;;;1.20;;
81648;SDS011;71057;51.436;6.768;2024-02-23T09:02:49;6.28;;;1.35;;
81648;SDS011;71057;51.436;6.768;2024-02-23T09:05:15;3.92;;;1.10;;
81648;SDS011;71057;51.436;6.768;2024-02-23T09:07:40;3.72;;;1.10;;
81648;SDS011;71057;51.436;6.768;2024-02-23T09:10:06;3.25;;;1.50;;
81648;SDS011;71057;51.436;6.768;2024-02-23T09:12:32;3.45;;;1.23;;
81648;SDS011;71057;51.436;6.768;2024-02-23T09:14:58;3.95;;;1.08;;
81648;SDS011;71057;51.436;6.768;2024-02-23T09:17:23;3.90;;;1.10;;
81648;SDS011;71057;51.436;6.768;2024-02-23T09:19:48;3.93;;;0.90;;
81648;SDS011;71057;51.436;6.768;2024-02-23T09:22:14;2.88;;;0.90;;
81648;SDS011;71057;51.436;6.768;2024-02-23T09:24:39;2.67;;;0.90;;
81648;SDS011;71057;51.436;6.768;2024-02-23T09:27:05;3.80;;;1.20;;
81648;SDS011;71057;51.436;6.768;2024-02-23T09:29:31;5.28;;;1.08;;
81648;SDS011;71057;51.436;6.768;2024-02-23T09:31:57;2.65;;;0.73;;
81648;SDS011;71057;51.436;6.768;2024-02-23T09:34:23;3.45;;;0.80;;
81648;SDS011;71057;51.436;6.768;2024-02-23T09:36:48;3.30;;;1.02;;
81648;SDS011;71057;51.436;6.768;2024-02-23T09:39:14;2.03;;;1.08;;
81648;SDS011;71057;51.436;6.768;2024-02-23T09:41:39;2.67;;;1.03;;
81648;SDS011;71057;51.436;6.768;2024-02-23T09:44:06;3.83;;;1.10;;
81648;SDS011;71057;51.436;6.768;2024-02-23T09:46:34;3.10;;;1.20;;
81648;SDS011;71057;51.436;6.768;2024-02-23T09:49:02;3.20;;;1.17;;
81648;SDS011;71057;51.436;6.768;2024-02-23T09:51:28;1.70;;;1.00;;
81648;SDS011;71057;51.436;6.768;2024-02-23T09:53:54;1.88;;;0.70;;
81648;SDS011;71057;51.436;6.768;2024-02-23T09:56:20;2.60;;;1.02;;
81648;SDS011;71057;51.436;6.768;2024-02-23T09:58:50;4.07;;;0.80;;
81648;SDS011;71057;51.436;6.768;2024-02-23T10:01:17;2.83;;;0.80;;
81648;SDS011;71057;51.436;6.768;2024-02-23T10:03:52;2.25;;;1.00;;
81648;SDS011;71057;51.436;6.768;2024-02-23T10:06:21;2.50;;;1.00;;
81648;SDS011;71057;51.436;6.768;2024-02-23T10:08:46;3.33;;;0.75;;
81648;SDS011;71057;51.436;6.768;2024-02-23T10:11:11;3.17;;;0.87;;
81648;SDS011;71057;51.436;6.768;2024-02-23T10:13:37;2.63;;;0.80;;
81648;SDS011;71057;51.436;6.768;2024-02-23T10:16:02;4.33;;;0.90;;
81648;SDS011;71057;51.436;6.768;2024-02-23T10:18:29;3.50;;;0.80;;
81648;SDS011;71057;51.436;6.768;2024-02-23T10:20:54;2.63;;;0.70;;
81648;SDS011;71057;51.436;6.768;2024-02-23T10:23:19;2.38;;;0.70;;
81648;SDS011;71057;51.436;6.768;2024-02-23T10:25:45;2.33;;;0.77;;
81648;SDS011;71057;51.436;6.768;2024-02-23T10:28:10;3.28;;;1.00;;
81648;SDS011;71057;51.436;6.768;2024-02-23T10:30:36;3.28;;;1.80;;
81648;SDS011;71057;51.436;6.768;2024-02-23T10:33:03;2.88;;;0.70;;
81648;SDS011;71057;51.436;6.768;2024-02-23T10:35:30;5.22;;;1.00;;
81648;SDS011;71057;51.436;6.768;2024-02-23T10:37:57;3.40;;;0.93;;
81648;SDS011;71057;51.436;6.768;2024-02-23T10:40:23;2.90;;;0.95;;
81648;SDS011;71057;51.436;6.768;2024-02-23T10:42:51;4.18;;;0.80;;
81648;SDS011;71057;51.436;6.768;2024-02-23T10:45:22;4.18;;;0.90;;
81648;SDS011;71057;51.436;6.768;2024-02-23T10:47:48;4.35;;;0.80;;
81648;SDS011;71057;51.436;6.768;2024-02-23T10:50:14;2.55;;;1.25;;
81648;SDS011;71057;51.436;6.768;2024-02-23T10:52:42;1.58;;;0.93;;
81648;SDS011;71057;51.436;6.768;2024-02-23T10:55:08;2.33;;;0.70;;
81648;SDS011;71057;51.436;6.768;2024-02-23T10:57:34;3.22;;;0.90;;
81648;SDS011;71057;51.436;6.768;2024-02-23T11:00:00;4.22;;;1.13;;
81648;SDS011;71057;51.436;6.768;2024-02-23T11:02:27;4.07;;;1.13;;
81648;SDS011;71057;51.436;6.768;2024-02-23T11:04:55;3.90;;;1.30;;
81648;SDS011;71057;51.436;6.768;2024-02-23T11:07:22;6.50;;;1.30;;
81648;SDS011;71057;51.436;6.768;2024-02-23T11:09:54;3.10;;;1.10;;
81648;SDS011;71057;51.436;6.768;2024-02-23T11:12:26;7.55;;;1.10;;
81648;SDS011;71057;51.436;6.768;2024-02-23T11:15:08;4.47;;;0.82;;
81648;SDS011;71057;51.436;6.768;2024-02-23T11:17:35;3.17;;;0.88;;
81648;SDS011;71057;51.436;6.768;2024-02-23T11:20:02;2.70;;;0.77;;
81648;SDS011;71057;51.436;6.768;2024-02-23T11:22:33;3.45;;;0.80;;
81648;SDS011;71057;51.436;6.768;2024-02-23T11:25:03;2.08;;;0.73;;
81648;SDS011;71057;51.436;6.768;2024-02-23T11:27:31;2.95;;;0.93;;
81648;SDS011;71057;51.436;6.768;2024-02-23T11:30:04;3.05;;;0.90;;
81648;SDS011;71057;51.436;6.768;2024-02-23T11:32:42;3.42;;;0.88;;
81648;SDS011;71057;51.436;6.768;2024-02-23T11:35:12;4.72;;;0.95;;
81648;SDS011;71057;51.436;6.768;2024-02-23T11:37:54;4.03;;;0.70;;
81648;SDS011;71057;51.436;6.768;2024-02-23T11:40:24;3.30;;;0.85;;
81648;SDS011;71057;51.436;6.768;2024-02-23T11:42:50;5.45;;;1.35;;
81648;SDS011;71057;51.436;6.768;2024-02-23T11:45:16;3.80;;;1.05;;
81648;SDS011;71057;51.436;6.768;2024-02-23T11:47:42;4.55;;;0.93;;
81648;SDS011;71057;51.436;6.768;2024-02-23T11:50:10;3.33;;;0.90;;
81648;SDS011;71057;51.436;6.768;2024-02-23T11:52:38;2.33;;;0.90;;
81648;SDS011;71057;51.436;6.768;2024-02-23T11:55:03;5.28;;;1.25;;
81648;SDS011;71057;51.436;6.768;2024-02-23T11:57:30;3.03;;;1.40;;
81648;SDS011;71057;51.436;6.768;2024-02-23T11:59:56;4.35;;;1.73;;
81648;SDS011;71057;51.436;6.768;2024-02-23T12:02:21;5.90;;;1.75;;
81648;SDS011;71057;51.436;6.768;2024-02-23T12:04:49;5.57;;;1.65;;
81648;SDS011;71057;51.436;6.768;2024-02-23T12:07:14;3.10;;;1.40;;
81648;SDS011;71057;51.436;6.768;2024-02-23T12:09:41;3.85;;;0.90;;
81648;SDS011;71057;51.436;6.768;2024-02-23T12:12:06;4.97;;;1.30;;
81648;SDS011;71057;51.436;6.768;2024-02-23T12:14:34;3.58;;;1.15;;
81648;SDS011;71057;51.436;6.768;2024-02-23T12:17:01;6.05;;;1.10;;
81648;SDS011;71057;51.436;6.768;2024-02-23T12:19:29;4.65;;;1.10;;
81648;SDS011;71057;51.436;6.768;2024-02-23T12:21:59;3.80;;;1.17;;
81648;SDS011;71057;51.436;6.768;2024-02-23T12:24:25;4.60;;;0.98;;
81648;SDS011;71057;51.436;6.768;2024-02-23T12:26:54;5.05;;;1.25;;
81648;SDS011;71057;51.436;6.768;2024-02-23T12:29:20;3.42;;;1.00;;
81648;SDS011;71057;51.436;6.768;2024-02-23T12:31:45;3.58;;;0.75;;
81648;SDS011;71057;51.436;6.768;2024-02-23T12:34:11;5.57;;;1.10;;
81648;SDS011;71057;51.436;6.768;2024-02-23T12:36:37;4.80;;;0.90;;
81648;SDS011;71057;51.436;6.768;2024-02-23T12:39:04;3.50;;;0.90;;
81648;SDS011;71057;51.436;6.768;2024-02-23T12:41:29;4.90;;;1.13;;
81648;SDS011;71057;51.436;6.768;2024-02-23T12:43:55;2.60;;;0.80;;
81648;SDS011;71057;51.436;6.768;2024-02-23T12:46:20;2.03;;;0.80;;
81648;SDS011;71057;51.436;6.768;2024-02-23T12:48:45;2.22;;;1.40;;
81648;SDS011;71057;51.436;6.768;2024-02-23T12:51:11;3.17;;;1.10;;
81648;SDS011;71057;51.436;6.768;2024-02-23T12:53:38;3.58;;;1.25;;
81648;SDS011;71057;51.436;6.768;2024-02-23T12:56:05;2.22;;;0.57;;
81648;SDS011;71057;51.436;6.768;2024-02-23T12:58:36;2.65;;;0.82;;
81648;SDS011;71057;51.436;6.768;2024-02-23T13:01:02;4.47;;;1.10;;
81648;SDS011;71057;51.436;6.768;2024-02-23T13:03:28;3.85;;;0.75;;
81648;SDS011;71057;51.436;6.768;2024-02-23T13:05:54;4.30;;;1.30;;
81648;SDS011;71057;51.436;6.768;2024-02-23T13:08:20;2.17;;;0.90;;
81648;SDS011;71057;51.436;6.768;2024-02-23T13:10:46;3.67;;;1.48;;
81648;SDS011;71057;51.436;6.768;2024-02-23T13:13:11;2.53;;;1.35;;
81648;SDS011;71057;51.436;6.768;2024-02-23T13:15:39;3.78;;;0.80;;
81648;SDS011;71057;51.436;6.768;2024-02-23T13:18:05;3.55;;;1.20;;
81648;SDS011;71057;51.436;6.768;2024-02-23T13:20:30;2.55;;;0.60;;
81648;SDS011;71057;51.436;6.768;2024-02-23T13:22:56;3.20;;;0.60;;
81648;SDS011;71057;51.436;6.768;2024-02-23T13:25:21;3.15;;;0.82;;
81648;SDS011;71057;51.436;6.768;2024-02-23T13:27:46;2.20;;;0.70;;
81648;SDS011;71057;51.436;6.768;2024-02-23T13:30:12;5.03;;;1.33;;
81648;SDS011;71057;51.436;6.768;2024-02-23T13:32:38;2.88;;;1.13;;
81648;SDS011;71057;51.436;6.768;2024-02-23T13:35:03;5.32;;;1.20;;
81648;SDS011;71057;51.436;6.768;2024-02-23T13:37:31;3.13;;;1.40;;
81648;SDS011;71057;51.436;6.768;2024-02-23T13:39:57;3.53;;;1.10;;
81648;SDS011;71057;51.436;6.768;2024-02-23T13:42:22;2.65;;;1.00;;
81648;SDS011;71057;51.436;6.768;2024-02-23T13:44:47;3.80;;;1.10;;
81648;SDS011;71057;51.436;6.768;2024-02-23T13:47:13;4.73;;;1.53;;
81648;SDS011;71057;51.436;6.768;2024-02-23T13:49:38;3.73;;;1.60;;
81648;SDS011;71057;51.436;6.768;2024-02-23T13:52:03;5.27;;;1.43;;
81648;SDS011;71057;51.436;6.768;2024-02-23T13:54:29;4.00;;;1.13;;
81648;SDS011;71057;51.436;6.768;2024-02-23T13:56:54;3.85;;;1.00;;
81648;SDS011;71057;51.436;6.768;2024-02-23T13:59:20;2.87;;;1.00;;
81648;SDS011;71057;51.436;6.768;2024-02-23T14:01:45;2.70;;;0.80;;
81648;SDS011;71057;51.436;6.768;2024-02-23T14:04:10;2.63;;;1.10;;
81648;SDS011;71057;51.436;6.768;2024-02-23T14:06:36;2.40;;;0.98;;
81648;SDS011;71057;51.436;6.768;2024-02-23T14:09:01;2.33;;;1.07;;
81648;SDS011;71057;51.436;6.768;2024-02-23T14:11:28;4.72;;;1.15;;
81648;SDS011;71057;51.436;6.768;2024-02-23T14:13:54;3.42;;;0.90;;
81648;SDS011;71057;51.436;6.768;2024-02-23T14:16:19;2.28;;;1.08;;
81648;SDS011;71057;51.436;6.768;2024-02-23T14:18:44;4.77;;;1.23;;
81648;SDS011;71057;51.436;6.768;2024-02-23T14:21:10;3.00;;;1.10;;
81648;SDS011;71057;51.436;6.768;2024-02-23T14:23:35;4.18;;;1.40;;
81648;SDS011;71057;51.436;6.768;2024-02-23T14:26:02;3.85;;;1.13;;
81648;SDS011;71057;51.436;6.768;2024-02-23T14:28:28;1.88;;;1.20;;
81648;SDS011;71057;51.436;6.768;2024-02-23T14:30:53;3.53;;;1.00;;
81648;SDS011;71057;51.436;6.768;2024-02-23T14:33:19;3.10;;;0.73;;
81648;SDS011;71057;51.436;6.768;2024-02-23T14:35:45;3.97;;;1.10;;
81648;SDS011;71057;51.436;6.768;2024-02-23T14:38:10;2.78;;;0.82;;
81648;SDS011;71057;51.436;6.768;2024-02-23T14:40:36;3.70;;;1.03;;
81648;SDS011;71057;51.436;6.768;2024-02-23T14:43:02;1.45;;;0.73;;